Redbird, Oklahoma
Current Conditions -  °F | °C
As of 12:53 AM on Monday 24 Nov 2014 (Local Time) from KMKO Reporting Station
Few Clouds Few Clouds  
Wind Chill: 36°   Ceiling: Unl
Heat Index: 43°   Visibility: 10mi
Dew Point: 38°   Wind: 14mph
Humidity: 82%   Direction: 280°W
Pressure: 29.73"   Gusts: NA
Location:  35.89°N, 95.59°W
Report Text: KMKO 240653Z AUTO 28012KT 10SM FEW110 06/03 A2973 RMK AO2 SLP065 T00610033
Loading
Personal Weather Stations






























Interactive Weather Map New forecast layout! Learn more

10-Day Weather Forecast

Advertisements
Track Severe Weather on mobile